KSMO/SMO METAR and TAF weather

Enter ICAO airport designator
Station Type Date Time Source
KSMO METAR 2019/02/16 16:51 UTC NOAA

KSMO 161651Z 32003KT 10SM CLR 12/02 A3017 RMK AO2 SLP216 T01170017


Station Type Date Time Source
KSMO Decoded METAR 2019/02/16 16:51 UTC NOAA

SANTA MONICA MUNICIPAL AIRPORT , CA, United States (KSMO) 34-01N 118-27W 57M
Feb 16, 2019 - 11:51 AM EST / 2019.02.16 1651 UTC
Wind: from the NW (320 degrees) at 3 MPH (3 KT):0
Visibility: 10 mile(s):0
Sky conditions: clear
Temperature: 53.1 F (11.7 C)
Dew Point: 35.1 F (1.7 C)
Relative Humidity: 50%
Pressure (altimeter): 30.17 in. Hg (1021 hPa)
ob: KSMO 161651Z 32003KT 10SM CLR 12/02 A3017 RMK AO2 SLP216 T01170017
cycle: 17

Station Type Date Time Source
KSMO TAF 2019/02/16 12:53 UTC NOAA

TAF KSMO 161153Z 1612/1712 32006KT P6SM SKC
FM161700 26010KT P6SM SCT050
FM162000 26015G20KT P6SM SCT050
FM170400 30008KT P6SM SCT050


Example: see airport list